createdAt,value
2017-12-27T00:00:59.327Z,2.87
2017-12-27T00:03:36.992Z,3.40
2017-12-27T00:06:18.580Z,3.23
2017-12-27T00:09:07.968Z,2.40
2017-12-27T00:11:51.093Z,2.87
2017-12-27T00:14:27.646Z,2.47
2017-12-27T00:17:02.514Z,2.90
2017-12-27T00:19:40.486Z,2.30
2017-12-27T00:22:16.857Z,2.60
2017-12-27T00:24:50.644Z,2.20
2017-12-27T00:27:26.108Z,2.33
2017-12-27T00:30:00.512Z,2.33
2017-12-27T00:32:27.685Z,2.10
2017-12-27T00:34:57.795Z,2.43
2017-12-27T00:37:30.885Z,2.67
2017-12-27T00:39:58.460Z,2.53
2017-12-27T00:42:28.754Z,2.23
2017-12-27T00:44:59.338Z,2.43
2017-12-27T00:50:05.574Z,2.10
2017-12-27T00:52:35.818Z,2.60
2017-12-27T00:55:04.574Z,1.90
2017-12-27T00:57:32.167Z,1.90
2017-12-27T01:00:01.391Z,1.93
2017-12-27T01:02:30.379Z,2.20
2017-12-27T01:04:59.221Z,2.30
2017-12-27T01:07:27.815Z,1.90
2017-12-27T01:09:57.162Z,2.20
2017-12-27T01:12:25.379Z,2.17
2017-12-27T01:14:57.100Z,2.23
2017-12-27T01:17:31.966Z,2.07
2017-12-27T01:20:04.105Z,1.70
2017-12-27T01:22:32.984Z,2.00
2017-12-27T01:25:01.555Z,1.97
2017-12-27T01:27:33.572Z,2.10
2017-12-27T01:30:08.812Z,2.00
2017-12-27T01:32:36.680Z,1.77
2017-12-27T01:35:06.594Z,1.93
2017-12-27T01:37:34.301Z,1.97
2017-12-27T01:40:02.355Z,1.97
2017-12-27T01:42:35.009Z,2.00
2017-12-27T01:45:05.712Z,2.07
2017-12-27T01:47:35.506Z,2.50
2017-12-27T01:50:04.827Z,2.60
2017-12-27T01:52:34.851Z,2.47
2017-12-27T01:55:03.814Z,2.07
2017-12-27T01:57:31.506Z,1.83
2017-12-27T02:00:03.469Z,1.70
2017-12-27T02:02:34.301Z,2.23
2017-12-27T02:05:01.964Z,2.10
2017-12-27T02:07:29.857Z,2.37
2017-12-27T02:10:02.717Z,3.03
2017-12-27T02:12:30.380Z,1.67
2017-12-27T02:14:58.248Z,2.20
2017-12-27T02:17:31.029Z,1.80
2017-12-27T02:20:01.489Z,1.87
2017-12-27T02:22:31.267Z,2.17
2017-12-27T02:25:02.514Z,2.30
2017-12-27T02:27:32.636Z,2.20
2017-12-27T02:30:04.357Z,1.97
2017-12-27T02:32:34.610Z,2.00
2017-12-27T02:35:05.802Z,2.33
2017-12-27T02:37:41.513Z,2.47
2017-12-27T02:40:27.289Z,2.20
2017-12-27T02:42:58.330Z,2.33
2017-12-27T02:45:26.105Z,2.13
2017-12-27T02:47:56.019Z,2.30
2017-12-27T02:50:25.934Z,2.20
2017-12-27T02:52:55.380Z,2.43
2017-12-27T02:55:30.971Z,2.20
2017-12-27T02:57:59.349Z,2.27
2017-12-27T03:00:27.758Z,2.20
2017-12-27T03:02:56.105Z,2.20
2017-12-27T03:05:23.766Z,1.87
2017-12-27T03:07:55.230Z,2.10
2017-12-27T03:10:24.531Z,2.87
2017-12-27T03:12:53.753Z,2.03
2017-12-27T03:15:24.772Z,1.90
2017-12-27T03:17:53.763Z,2.43
2017-12-27T03:23:02.735Z,1.80
2017-12-27T03:25:37.235Z,1.67
2017-12-27T03:28:06.202Z,2.80
2017-12-27T03:30:37.339Z,2.43
2017-12-27T03:33:05.782Z,2.07
2017-12-27T03:35:34.827Z,1.87
2017-12-27T03:38:02.945Z,2.10
2017-12-27T03:40:36.422Z,1.93
2017-12-27T03:43:05.071Z,2.00
2017-12-27T03:45:33.981Z,2.00
2017-12-27T03:48:03.014Z,1.60
2017-12-27T03:50:33.628Z,2.30
2017-12-27T03:53:04.176Z,2.07
2017-12-27T03:55:37.203Z,1.80
2017-12-27T03:58:08.822Z,2.13
2017-12-27T04:00:36.485Z,1.73
2017-12-27T04:03:07.424Z,2.67
2017-12-27T04:05:37.525Z,1.67
2017-12-27T04:08:09.195Z,1.83
2017-12-27T04:13:21.017Z,1.93
2017-12-27T04:15:49.786Z,2.00
2017-12-27T04:18:18.406Z,1.93
2017-12-27T04:20:47.374Z,2.00
2017-12-27T04:23:20.043Z,1.97
2017-12-27T04:25:48.525Z,2.23
2017-12-27T04:28:30.435Z,1.63
2017-12-27T04:31:02.035Z,2.23
2017-12-27T04:33:32.409Z,2.23
2017-12-27T04:36:03.758Z,2.07
2017-12-27T04:41:18.641Z,1.93
2017-12-27T04:43:49.841Z,2.00
2017-12-27T04:46:21.759Z,2.10
2017-12-27T04:48:53.728Z,2.20
2017-12-27T04:51:24.060Z,2.40
2017-12-27T04:56:29.305Z,2.20
2017-12-27T04:58:59.641Z,2.40
2017-12-27T05:01:30.786Z,1.83
2017-12-27T05:04:00.976Z,2.13
2017-12-27T05:06:32.442Z,2.37
2017-12-27T05:09:01.230Z,2.07
2017-12-27T05:11:32.263Z,2.13
2017-12-27T05:14:02.187Z,2.67
2017-12-27T05:16:33.016Z,2.00
2017-12-27T05:19:05.804Z,2.77
2017-12-27T05:21:35.101Z,2.43
2017-12-27T05:24:11.064Z,2.70
2017-12-27T05:26:44.064Z,2.40
2017-12-27T05:29:12.830Z,2.37
2017-12-27T05:31:45.035Z,2.87
2017-12-27T05:34:35.618Z,2.10
2017-12-27T05:37:10.874Z,2.17
2017-12-27T05:39:42.422Z,2.40
2017-12-27T05:42:15.647Z,2.53
2017-12-27T05:44:50.208Z,2.70
2017-12-27T05:47:19.243Z,2.90
2017-12-27T05:49:47.273Z,2.77
2017-12-27T05:52:17.696Z,2.67
2017-12-27T05:54:48.839Z,2.50
2017-12-27T05:57:18.096Z,3.00
2017-12-27T05:59:46.727Z,2.80
2017-12-27T06:02:15.516Z,2.70
2017-12-27T06:07:29.264Z,2.67
2017-12-27T06:09:58.694Z,2.80
2017-12-27T06:12:30.433Z,2.73
2017-12-27T06:14:59.477Z,2.80
2017-12-27T06:17:29.219Z,3.30
2017-12-27T06:19:57.163Z,2.77
2017-12-27T06:22:25.757Z,2.87
2017-12-27T06:24:53.338Z,2.87
2017-12-27T06:27:21.080Z,2.80
2017-12-27T06:29:49.316Z,2.63
2017-12-27T06:32:17.980Z,3.37
2017-12-27T06:34:48.461Z,3.37
2017-12-27T06:37:16.134Z,3.00
2017-12-27T06:39:43.787Z,3.37
2017-12-27T06:42:11.450Z,2.80
2017-12-27T06:44:39.943Z,3.00
2017-12-27T06:47:08.257Z,2.57
2017-12-27T06:49:38.330Z,2.60
2017-12-27T06:52:08.757Z,2.33
2017-12-27T06:54:36.420Z,3.17
2017-12-27T06:57:06.438Z,2.23
2017-12-27T06:59:34.921Z,1.90
2017-12-27T07:02:08.842Z,2.37
2017-12-27T07:04:36.532Z,2.83
2017-12-27T07:07:10.434Z,2.13
2017-12-27T07:09:38.924Z,2.33
2017-12-27T07:12:07.365Z,2.50
2017-12-27T07:14:40.184Z,2.50
2017-12-27T07:17:09.787Z,2.40
2017-12-27T07:22:17.164Z,2.30
2017-12-27T07:24:46.495Z,2.47
2017-12-27T07:27:16.263Z,2.83
2017-12-27T07:29:43.937Z,2.90
2017-12-27T07:32:11.602Z,2.80
2017-12-27T07:34:41.714Z,2.50
2017-12-27T07:37:12.870Z,2.53
2017-12-27T07:39:40.716Z,2.70
2017-12-27T07:42:08.401Z,2.30
2017-12-27T07:44:36.398Z,2.30
2017-12-27T07:47:08.518Z,2.87
2017-12-27T07:49:37.255Z,2.70
2017-12-27T07:52:08.476Z,2.80
2017-12-27T07:54:37.461Z,2.80
2017-12-27T07:57:06.480Z,2.90
2017-12-27T07:59:37.082Z,2.80
2017-12-27T08:02:05.050Z,2.50
2017-12-27T08:04:33.626Z,2.60
2017-12-27T08:07:01.496Z,3.37
2017-12-27T08:09:34.894Z,2.80
2017-12-27T08:12:05.765Z,3.03
2017-12-27T08:14:36.454Z,3.57
2017-12-27T08:17:05.862Z,2.67
2017-12-27T08:19:36.183Z,2.63
2017-12-27T08:22:04.156Z,2.30
2017-12-27T08:24:33.657Z,2.70
2017-12-27T08:27:03.858Z,2.50
2017-12-27T08:29:39.832Z,2.23
2017-12-27T08:32:20.280Z,3.07
2017-12-27T08:34:55.019Z,2.63
2017-12-27T08:37:23.858Z,2.77
2017-12-27T08:39:52.302Z,2.90
2017-12-27T08:42:21.021Z,2.90
2017-12-27T08:44:49.406Z,2.80
2017-12-27T08:50:22.591Z,2.63
2017-12-27T08:52:52.020Z,2.80
2017-12-27T08:55:22.278Z,2.33
2017-12-27T08:57:51.617Z,2.43
2017-12-27T09:00:20.721Z,2.87
2017-12-27T09:02:48.914Z,2.70
2017-12-27T09:05:19.940Z,3.20
2017-12-27T09:07:52.270Z,3.10
2017-12-27T09:10:26.221Z,2.93
2017-12-27T09:12:59.002Z,3.27
2017-12-27T09:15:37.744Z,3.60
2017-12-27T09:18:06.528Z,3.07
2017-12-27T09:20:37.174Z,3.33
2017-12-27T09:23:08.299Z,3.37
2017-12-27T09:25:40.886Z,3.37
2017-12-27T09:28:11.429Z,3.33
2017-12-27T09:30:40.313Z,3.30
2017-12-27T09:33:17.172Z,3.77
2017-12-27T09:35:45.711Z,3.00
2017-12-27T09:38:15.896Z,3.50
2017-12-27T09:40:45.317Z,3.30
2017-12-27T09:43:14.701Z,4.00
2017-12-27T09:45:47.777Z,3.17
2017-12-27T09:48:27.329Z,3.50
2017-12-27T09:50:57.857Z,3.50
2017-12-27T09:53:27.845Z,3.97
2017-12-27T09:55:58.396Z,3.23
2017-12-27T09:58:28.002Z,2.97
2017-12-27T10:00:55.420Z,3.03
2017-12-27T10:03:23.740Z,3.30
2017-12-27T10:05:51.936Z,3.20
2017-12-27T10:08:19.420Z,3.43
2017-12-27T10:10:46.929Z,3.87
2017-12-27T10:13:15.155Z,3.37
2017-12-27T10:15:42.596Z,3.30
2017-12-27T10:18:10.049Z,3.47
2017-12-27T10:20:37.483Z,3.00
2017-12-27T10:23:05.692Z,2.90
2017-12-27T10:25:33.152Z,2.90
2017-12-27T10:28:00.589Z,3.10
2017-12-27T10:30:28.076Z,2.97
2017-12-27T10:33:02.342Z,3.30
2017-12-27T10:35:30.543Z,3.37
2017-12-27T10:37:57.976Z,3.30
2017-12-27T10:40:25.479Z,4.33
2017-12-27T10:42:52.918Z,3.10
2017-12-27T10:45:20.390Z,3.30
2017-12-27T10:47:47.864Z,3.30
2017-12-27T10:50:15.281Z,3.10
2017-12-27T10:52:42.705Z,3.93
2017-12-27T10:55:10.918Z,2.60
2017-12-27T10:57:38.392Z,2.50
2017-12-27T11:00:05.831Z,2.73
2017-12-27T11:02:33.304Z,2.43
2017-12-27T11:05:00.852Z,3.07
2017-12-27T11:07:28.257Z,3.03
2017-12-27T11:09:55.696Z,2.70
2017-12-27T11:12:23.238Z,2.60
2017-12-27T11:14:50.669Z,2.60
2017-12-27T11:17:18.145Z,2.87
2017-12-27T11:19:45.577Z,3.03
2017-12-27T11:22:13.060Z,2.53
2017-12-27T11:24:40.525Z,2.40
2017-12-27T11:27:07.958Z,2.50
2017-12-27T11:29:35.384Z,2.50
2017-12-27T11:32:03.698Z,2.97
2017-12-27T11:34:31.106Z,2.77
2017-12-27T11:36:58.622Z,2.43
2017-12-27T11:39:26.069Z,2.43
2017-12-27T11:41:53.544Z,3.10
2017-12-27T11:44:21.041Z,2.67
2017-12-27T11:46:49.281Z,2.73
2017-12-27T11:49:16.704Z,2.87
2017-12-27T11:51:44.191Z,2.80
2017-12-27T11:54:11.645Z,2.80
2017-12-27T11:56:39.091Z,3.00
2017-12-27T11:59:06.855Z,3.00
2017-12-27T12:01:34.276Z,3.20
2017-12-27T12:04:02.560Z,3.40
2017-12-27T12:06:30.006Z,3.40
2017-12-27T12:08:58.206Z,3.67
2017-12-27T12:11:25.632Z,3.50
2017-12-27T12:13:53.852Z,3.50
2017-12-27T12:16:21.305Z,3.97
2017-12-27T12:18:48.772Z,4.00
2017-12-27T12:21:16.242Z,4.30
2017-12-27T12:23:43.680Z,3.50
2017-12-27T12:26:11.152Z,5.43
2017-12-27T12:28:38.576Z,5.20
2017-12-27T12:31:06.066Z,4.70
2017-12-27T12:33:33.508Z,4.63
2017-12-27T12:36:00.942Z,5.20
2017-12-27T12:38:28.433Z,5.43
2017-12-27T12:40:55.873Z,5.23
2017-12-27T12:43:23.296Z,5.40
2017-12-27T12:45:51.511Z,4.83
2017-12-27T12:48:18.966Z,5.30
2017-12-27T12:50:46.432Z,5.63
2017-12-27T12:53:13.869Z,5.27
2017-12-27T12:55:41.296Z,5.23
2017-12-27T12:58:09.520Z,6.37
2017-12-27T13:00:36.968Z,5.90
2017-12-27T13:03:04.392Z,5.83
2017-12-27T13:05:32.631Z,6.07
2017-12-27T13:08:00.075Z,6.80
2017-12-27T13:10:27.492Z,6.17
2017-12-27T13:12:54.920Z,7.17
2017-12-27T13:15:23.860Z,7.23
2017-12-27T13:17:51.286Z,7.80
2017-12-27T13:20:19.491Z,8.80
2017-12-27T13:22:46.936Z,7.43
2017-12-27T13:25:14.360Z,7.70
2017-12-27T13:27:42.560Z,7.90
2017-12-27T13:30:09.993Z,7.70
2017-12-27T13:32:38.188Z,6.93
2017-12-27T13:35:05.692Z,6.63
2017-12-27T13:37:33.150Z,6.10
2017-12-27T13:40:00.565Z,6.23
2017-12-27T13:42:27.989Z,6.07
2017-12-27T13:44:56.927Z,6.23
2017-12-27T13:47:24.352Z,5.93
2017-12-27T13:49:52.542Z,6.23
2017-12-27T13:52:19.969Z,7.37
2017-12-27T13:54:48.160Z,7.10
2017-12-27T13:57:16.371Z,7.23
2017-12-27T13:59:43.812Z,7.70
2017-12-27T14:02:11.300Z,6.80
2017-12-27T14:04:38.741Z,7.93
2017-12-27T14:07:06.177Z,8.10
2017-12-27T14:09:33.668Z,8.20
2017-12-27T14:12:01.096Z,7.40
2017-12-27T14:14:28.596Z,8.80
2017-12-27T14:16:56.038Z,8.33
2017-12-27T14:19:23.469Z,6.77
2017-12-27T14:21:50.952Z,6.17
2017-12-27T14:24:18.400Z,6.10
2017-12-27T14:26:45.821Z,6.50
2017-12-27T14:29:14.036Z,5.70
2017-12-27T14:31:41.509Z,6.03
2017-12-27T14:34:08.956Z,6.47
2017-12-27T14:36:36.398Z,6.30
2017-12-27T14:39:03.896Z,6.03
2017-12-27T14:41:32.152Z,6.03
2017-12-27T14:43:59.594Z,6.30
2017-12-27T14:46:27.017Z,6.47
2017-12-27T14:48:55.208Z,5.30
2017-12-27T14:51:22.660Z,5.80
2017-12-27T14:53:50.153Z,5.73
2017-12-27T14:56:17.580Z,6.10
2017-12-27T14:58:45.033Z,6.57
2017-12-27T15:01:12.461Z,7.17
2017-12-27T15:03:40.660Z,7.40
2017-12-27T15:06:08.093Z,7.97
2017-12-27T15:08:35.529Z,7.67
2017-12-27T15:11:02.990Z,8.37
2017-12-27T15:13:30.432Z,7.13
2017-12-27T15:15:57.865Z,7.70
2017-12-27T15:18:25.297Z,7.53
2017-12-27T15:20:52.736Z,7.53
2017-12-27T15:23:20.953Z,6.83
2017-12-27T15:25:48.364Z,8.03
2017-12-27T15:28:15.809Z,7.70
2017-12-27T15:30:43.237Z,6.77
2017-12-27T15:33:10.680Z,8.27
2017-12-27T15:35:38.118Z,8.00
2017-12-27T15:38:05.549Z,7.67
2017-12-27T15:40:33.792Z,8.20
2017-12-27T15:43:01.244Z,8.60
2017-12-27T15:45:28.671Z,9.13
2017-12-27T15:47:56.093Z,9.30
2017-12-27T15:50:24.337Z,8.67
2017-12-27T15:52:51.788Z,9.10
2017-12-27T15:55:19.222Z,9.37
2017-12-27T15:57:46.701Z,9.53
2017-12-27T16:00:14.152Z,9.40
2017-12-27T16:02:41.583Z,11.65
2017-12-27T16:05:13.025Z,9.77
2017-12-27T16:07:42.991Z,9.90
2017-12-27T16:10:14.182Z,9.87
2017-12-27T16:12:44.973Z,8.93
2017-12-27T16:15:14.255Z,8.90
2017-12-27T16:17:41.763Z,9.60
2017-12-27T16:20:12.419Z,9.07
2017-12-27T16:22:40.768Z,8.50
2017-12-27T16:25:08.311Z,10.23
2017-12-27T16:27:37.397Z,9.47
2017-12-27T16:30:05.831Z,10.40
2017-12-27T16:32:35.663Z,10.47
2017-12-27T16:35:05.810Z,10.63
2017-12-27T16:37:34.145Z,10.60
2017-12-27T16:40:03.976Z,11.93
2017-12-27T16:42:32.049Z,15.53
2017-12-27T16:44:59.905Z,15.07
2017-12-27T16:47:28.679Z,14.03
2017-12-27T16:50:00.017Z,12.20
2017-12-27T16:52:30.360Z,14.27
2017-12-27T16:55:05.397Z,10.70
2017-12-27T16:57:36.545Z,11.10
2017-12-27T17:00:10.849Z,10.23
2017-12-27T17:02:44.553Z,10.63
2017-12-27T17:05:19.387Z,9.80
2017-12-27T17:08:06.071Z,10.00
2017-12-27T17:10:41.226Z,14.87
2017-12-27T17:13:13.499Z,18.53
2017-12-27T17:15:46.941Z,13.57
2017-12-27T17:18:16.604Z,11.43
2017-12-27T17:20:49.285Z,11.73
2017-12-27T17:23:29.848Z,22.30
2017-12-27T17:26:02.473Z,26.77
2017-12-27T17:28:32.317Z,18.10
2017-12-27T17:31:05.632Z,11.90
2017-12-27T17:33:38.734Z,10.70
2017-12-27T17:36:09.967Z,11.03
2017-12-27T17:38:39.272Z,10.27
2017-12-27T17:41:12.185Z,10.63
2017-12-27T17:43:42.560Z,10.40
2017-12-27T17:46:12.333Z,10.97
2017-12-27T17:48:47.105Z,10.97
2017-12-27T17:51:20.072Z,11.77
2017-12-27T17:56:35.813Z,11.50
2017-12-27T17:59:07.767Z,10.67
2017-12-27T18:04:17.743Z,11.50
2017-12-27T18:06:53.570Z,11.40
2017-12-27T18:09:23.986Z,11.30
2017-12-27T18:11:54.617Z,11.47
2017-12-27T18:14:25.772Z,11.50
2017-12-27T18:16:57.471Z,11.03
2017-12-27T18:19:29.622Z,10.57
2017-12-27T18:21:58.973Z,11.63
2017-12-27T18:24:32.485Z,11.20
2017-12-27T18:27:06.589Z,12.27
2017-12-27T18:29:37.924Z,11.50
2017-12-27T18:32:13.490Z,13.60
2017-12-27T18:34:42.434Z,12.27
2017-12-27T18:37:17.767Z,14.40
2017-12-27T18:39:51.878Z,17.83
2017-12-27T18:42:24.665Z,18.37
2017-12-27T18:44:56.921Z,16.97
2017-12-27T18:47:28.366Z,19.50
2017-12-27T18:50:00.051Z,14.87
2017-12-27T18:52:31.696Z,11.90
2017-12-27T18:55:04.210Z,6.43
2017-12-27T18:57:36.476Z,4.00
2017-12-27T19:00:16.082Z,2.70
2017-12-27T19:02:46.714Z,2.23
2017-12-27T19:05:18.577Z,1.77
2017-12-27T19:07:49.460Z,1.70
2017-12-27T19:10:22.332Z,2.03
2017-12-27T19:12:57.449Z,2.37
2017-12-27T19:15:32.774Z,2.67
2017-12-27T19:18:08.004Z,1.70
2017-12-27T19:20:42.276Z,1.90
2017-12-27T19:23:11.018Z,2.03
2017-12-27T19:25:40.385Z,1.63
2017-12-27T19:28:12.018Z,1.97
2017-12-27T19:30:41.340Z,2.30
2017-12-27T19:33:21.167Z,2.60
2017-12-27T19:36:14.808Z,1.20
2017-12-27T19:38:54.346Z,2.23
2017-12-27T19:41:25.211Z,1.67
2017-12-27T19:44:01.026Z,1.40
2017-12-27T19:46:39.185Z,1.83
2017-12-27T19:49:09.934Z,1.60
2017-12-27T19:51:44.785Z,1.40
2017-12-27T19:54:21.823Z,1.60
2017-12-27T19:56:55.745Z,1.57
2017-12-27T19:59:33.787Z,1.60
2017-12-27T20:02:15.066Z,1.60
2017-12-27T20:07:23.385Z,1.70
2017-12-27T20:10:00.354Z,1.30
2017-12-27T20:12:45.762Z,1.60
2017-12-27T20:15:18.445Z,1.40
2017-12-27T20:17:57.266Z,2.10
2017-12-27T20:20:30.512Z,2.00
2017-12-27T20:23:00.788Z,2.10
2017-12-27T20:25:33.896Z,1.30
2017-12-27T20:28:06.662Z,2.30
2017-12-27T20:30:48.549Z,1.80
2017-12-27T20:33:39.254Z,1.70
2017-12-27T20:36:14.045Z,1.13
2017-12-27T20:38:49.769Z,1.87
2017-12-27T20:41:25.421Z,1.10
2017-12-27T20:44:06.664Z,1.70
2017-12-27T20:46:47.637Z,2.73
2017-12-27T20:49:22.964Z,1.60
2017-12-27T20:52:11.942Z,2.17
2017-12-27T20:54:52.712Z,1.90
2017-12-27T21:00:14.391Z,1.60
2017-12-27T21:02:55.564Z,1.43
2017-12-27T21:05:28.235Z,1.60
2017-12-27T21:08:04.115Z,3.77
2017-12-27T21:10:38.809Z,2.87
2017-12-27T21:13:09.833Z,1.90
2017-12-27T21:15:40.350Z,1.70
2017-12-27T21:18:31.050Z,1.53
2017-12-27T21:21:15.637Z,1.63
2017-12-27T21:24:00.712Z,1.87
2017-12-27T21:26:42.200Z,1.67
2017-12-27T21:29:22.366Z,2.07
2017-12-27T21:31:54.829Z,2.00
2017-12-27T21:34:36.607Z,1.57
2017-12-27T21:39:56.385Z,1.67
2017-12-27T21:42:39.770Z,1.57
2017-12-27T21:45:10.987Z,1.97
2017-12-27T21:47:57.590Z,1.50
2017-12-27T21:50:30.365Z,1.80
2017-12-27T21:53:03.356Z,2.00
2017-12-27T21:55:35.212Z,1.37
2017-12-27T21:58:10.888Z,1.87
2017-12-27T22:00:45.885Z,1.40
2017-12-27T22:03:18.520Z,1.43
2017-12-27T22:05:50.970Z,2.70
2017-12-27T22:08:21.217Z,1.97
2017-12-27T22:10:50.314Z,1.80
2017-12-27T22:13:18.079Z,1.90
2017-12-27T22:15:51.830Z,2.03
2017-12-27T22:18:26.056Z,1.97
2017-12-27T22:21:10.000Z,1.83
2017-12-27T22:24:00.592Z,2.53
2017-12-27T22:26:33.547Z,2.37
2017-12-27T22:29:09.968Z,1.93
2017-12-27T22:31:45.601Z,2.03
2017-12-27T22:34:21.046Z,1.67
2017-12-27T22:36:49.606Z,1.63
2017-12-27T22:39:22.115Z,1.70
2017-12-27T22:41:52.996Z,2.03
2017-12-27T22:44:30.272Z,2.00
2017-12-27T22:47:02.249Z,4.03
2017-12-27T22:49:32.563Z,6.90
2017-12-27T22:52:07.291Z,2.97
2017-12-27T22:54:39.062Z,2.00
2017-12-27T22:57:11.635Z,2.20
2017-12-27T22:59:51.677Z,1.83
2017-12-27T23:02:31.063Z,1.90
2017-12-27T23:05:11.120Z,2.23
2017-12-27T23:07:41.960Z,4.43
2017-12-27T23:10:17.661Z,2.80
2017-12-27T23:12:48.218Z,2.50
2017-12-27T23:15:19.553Z,4.07
2017-12-27T23:17:55.904Z,6.87
2017-12-27T23:20:27.278Z,2.67
2017-12-27T23:22:56.676Z,2.47
2017-12-27T23:25:33.684Z,2.53
2017-12-27T23:33:41.062Z,2.80
2017-12-27T23:36:11.367Z,3.00
2017-12-27T23:38:47.265Z,3.53
2017-12-27T23:41:22.935Z,3.20
2017-12-27T23:43:52.928Z,3.00
2017-12-27T23:46:24.071Z,2.50
2017-12-27T23:48:54.336Z,3.33
2017-12-27T23:51:22.272Z,2.53
2017-12-27T23:53:59.663Z,3.40
2017-12-27T23:59:14.258Z,3.30
